Latest Weather Observations for Dartmoor

IDV60801

Issued at 7:35 am EDT Wednesday 26 November 2014 (issued every 30 minutes, with the page automatically refreshed every 10 minutes)

About weather observations | Map of weather stations | Latest weather observations for VIC | Other Formats
Station Details ID: 090194 Name: DARTMOOR Lat: -37.92 Lon: 141.26 Height: 51.0 m
Data from the previous 72 hours. | See also: Recent months at Dartmoor
Date/Time
EDT
Temp
°C
App
Temp
°C
Dew
Point
Rel
Hum
%
Delta-T
°C
Wind Press
QNH
hPa
Press
MSL
hPa
Rain
since 9 am
mm
Dir
 
Spd
km/h
Gust
km/h
Spd
kts
Gust
kts
26/07:30am 12.6 12.1 12.6 100 0.0 NW 7 11 4 6 1021.8 1021.8 0.0
26/07:00am 12.1 11.4 12.1 100 0.0 NW 7 9 4 5 1021.7 1021.7 0.0
26/06:30am 12.0 11.3 12.0 100 0.0 WNW 7 9 4 5 1021.6 1021.6 0.0
26/06:00am 11.9 10.7 11.7 99 0.1 WNW 9 13 5 7 1021.3 1021.3 0.0
26/05:30am 11.7 10.8 11.5 99 0.1 WNW 7 9 4 5 1021.0 1021.0 0.0
26/05:00am 11.6 10.7 11.4 99 0.1 WNW 7 9 4 5 1020.9 1020.9 0.0
26/04:30am 11.5 10.7 10.9 96 0.3 WNW 6 7 3 4 1020.8 1020.8 0.0
26/04:00am 11.2 11.3 10.3 94 0.5 CALM 0 0 0 0 1020.8 1020.8 0.0
26/03:30am 11.2 10.6 10.3 94 0.5 NNW 4 4 2 2 1020.8 1020.8 0.0
26/03:00am 11.1 10.0 10.0 93 0.6 WNW 6 6 3 3 1021.0 1021.0 0.0
26/02:30am 11.1 10.4 9.9 92 0.6 NW 4 6 2 3 1021.2 1021.2 0.0
26/02:00am 11.1 10.4 9.9 92 0.6 NW 4 4 2 2 1021.4 1021.4 0.0
26/01:30am 11.0 9.7 9.8 92 0.6 NW 7 9 4 5 1021.7 1021.7 0.0
26/01:00am 10.8 9.7 9.9 94 0.5 NNW 6 7 3 4 1022.0 1022.0 0.0
26/12:30am 10.4 9.1 9.8 96 0.3 NW 7 9 4 5 1022.2 1022.2 0.0
26/12:00am 10.1 8.1 8.7 91 0.7 NW 9 9 5 5 1022.4 1022.4 0.0
 
Date/Time
EDT
Temp
°C
App
Temp
°C
Dew
Point
Rel
Hum
%
Delta-T
°C
Wind Press
QNH
hPa
Press
MSL
hPa
Rain
since 9 am
mm
Dir
 
Spd
km/h
Gust
km/h
Spd
kts
Gust
kts
25/11:30pm 10.7 8.9 9.3 91 0.7 NW 9 9 5 5 1022.4 1022.4 0.0
25/11:00pm 10.3 8.5 8.1 86 1.1 WNW 7 7 4 4 1022.6 1022.6 0.0
25/10:30pm 11.4 9.8 7.9 79 1.7 WNW 6 7 3 4 1022.6 1022.6 0.0
25/10:00pm 12.1 10.4 7.4 73 2.3 W 6 7 3 4 1022.5 1022.5 0.0
25/09:30pm 12.8 11.1 7.5 70 2.6 W 6 7 3 4 1022.4 1022.4 0.0
25/09:00pm 12.9 10.9 7.1 68 2.8 WSW 7 11 4 6 1022.3 1022.3 0.0
25/08:30pm 13.4 10.5 6.7 64 3.2 WSW 11 17 6 9 1022.2 1022.2 0.0
25/08:00pm 14.1 11.4 7.2 63 3.4 SW 11 19 6 10 1022.1 1022.1 0.0
25/07:30pm 14.4 10.9 7.2 62 3.5 SW 15 26 8 14 1021.9 1021.9 0.0
25/07:00pm 14.7 10.5 7.3 61 3.6 WSW 19 26 10 14 1021.7 1021.7 0.0
25/06:30pm 14.9 11.4 8.6 66 3.2 SW 17 26 9 14 1021.2 1021.2 0.0
25/06:00pm 15.3 10.8 8.5 64 3.4 WSW 22 30 12 16 1021.0 1021.0 0.0
25/05:30pm 15.5 11.4 8.7 64 3.5 W 20 28 11 15 1020.9 1020.9 0.0
25/05:00pm 16.7 12.2 8.4 58 4.2 SW 22 41 12 22 1020.8 1020.8 0.0
25/04:30pm 16.6 12.4 8.3 58 4.2 SW 20 35 11 19 1020.8 1020.8 0.0
25/04:00pm 16.4 11.9 10.0 66 3.4 SW 24 33 13 18 1020.8 1020.8 0.0
25/03:30pm 17.0 12.9 8.7 58 4.3 WSW 20 33 11 18 1020.8 1020.8 0.0
25/03:00pm 16.2 11.8 8.9 62 3.7 WSW 22 28 12 15 1021.1 1021.1 0.0
25/02:30pm 15.6 11.5 8.8 64 3.5 WSW 20 35 11 19 1021.2 1021.2 0.0
25/02:00pm 16.9 12.8 8.8 59 4.2 WSW 20 30 11 16 1021.0 1021.0 0.0
25/01:30pm 17.0 12.5 7.1 52 4.9 W 20 26 11 14 1020.9 1020.9 0.0
25/01:00pm 15.6 11.7 8.8 64 3.5 WSW 19 30 10 16 1021.3 1021.3 0.0
25/12:30pm 16.1 11.8 7.8 58 4.2 W 20 30 11 16 1021.2 1021.2 0.0
25/12:00pm 16.6 12.7 7.3 54 4.6 W 17 26 9 14 1020.9 1020.9 0.0
25/11:30am 15.9 11.8 7.9 59 4.0 WSW 19 28 10 15 1021.0 1021.0 0.0
25/11:00am 15.2 11.4 8.9 66 3.2 W 19 28 10 15 1020.9 1020.9 0.0
25/10:30am 15.2 11.6 10.0 71 2.7 W 19 33 10 18 1020.6 1020.6 0.0
25/10:00am 14.0 12.2 12.0 88 1.1 W 13 20 7 11 1020.5 1020.5 0.0
25/09:30am 14.1 13.7 14.1 100 0.0 W 9 15 5 8 1020.1 1020.1 0.0
25/09:00am 12.7 11.8 12.7 100 0.0 WNW 9 15 5 8 1019.8 1019.8 3.4
25/08:30am 12.2 11.2 12.2 100 0.0 WNW 9 15 5 8 1019.5 1019.5 3.4
25/08:00am 11.0 9.2 11.0 100 0.0 WNW 11 17 6 9 1019.4 1019.4 3.2
25/07:30am 10.4 10.6 10.4 100 0.0 CALM 0 0 0 0 1018.8 1018.8 3.2
25/07:00am 9.6 8.4 9.6 100 0.0 NW 6 7 3 4 1018.5 1018.5 3.2
25/06:30am 9.0 7.1 9.0 100 0.0 NNW 9 13 5 7 1018.1 1018.1 3.0
25/06:00am 8.6 7.1 8.6 100 0.0 NNW 6 7 3 4 1017.7 1017.7 3.0
25/05:30am 8.3 7.9 8.3 100 0.0 CALM 0 0 0 0 1017.1 1017.1 3.0
25/05:00am 8.9 7.3 8.9 100 0.0 NW 7 11 4 6 1016.8 1016.8 3.0
25/04:30am 8.7 6.7 8.7 100 0.0 NW 9 13 5 7 1016.6 1016.6 3.0
25/04:00am 9.3 7.8 9.3 100 0.0 WNW 7 11 4 6 1016.4 1016.4 3.0
25/03:30am 9.4 7.2 9.4 100 0.0 WNW 11 15 6 8 1016.7 1016.7 3.0
25/03:00am 8.7 6.7 8.7 100 0.0 WNW 9 13 5 7 1016.4 1016.4 3.0
25/02:30am 8.4 5.9 8.4 100 0.0 WNW 11 13 6 7 1016.5 1016.5 3.0
25/02:00am 8.4 6.3 8.4 100 0.0 NW 9 11 5 6 1016.6 1016.6 3.0
25/01:30am 8.8 6.4 8.8 100 0.0 NW 11 13 6 7 1016.5 1016.5 2.8
25/01:00am 8.8 6.8 8.8 100 0.0 NW 9 11 5 6 1016.4 1016.4 2.8
25/12:30am 9.3 7.5 9.3 100 0.0 NW 9 13 5 7 1016.2 1016.2 2.8
25/12:00am 8.9 7.0 8.9 100 0.0 NW 9 11 5 6 1016.1 1016.1 2.4
 
Date/Time
EDT
Temp
°C
App
Temp
°C
Dew
Point
Rel
Hum
%
Delta-T
°C
Wind Press
QNH
hPa
Press
MSL
hPa
Rain
since 9 am
mm
Dir
 
Spd
km/h
Gust
km/h
Spd
kts
Gust
kts
24/11:30pm 9.6 7.5 9.6 100 0.0 WNW 11 13 6 7 1016.1 1016.1 2.4
24/11:00pm 9.9 8.2 9.9 100 0.0 WNW 9 13 5 7 1015.9 1015.9 2.4
24/10:30pm 10.8 9.7 10.5 98 0.2 WNW 7 13 4 7 1015.8 1015.8 2.4
24/10:00pm 11.7 9.6 9.6 87 1.1 W 11 19 6 10 1015.4 1015.4 2.4
24/09:30pm 12.1 9.4 8.8 80 1.6 W 13 20 7 11 1015.0 1015.0 2.4
24/09:00pm 12.5 9.5 7.6 72 2.4 W 13 20 7 11 1014.7 1014.7 2.4
24/08:30pm 13.6 9.9 6.5 62 3.4 W 15 28 8 15 1014.3 1014.3 2.4
24/08:00pm 14.3 9.2 6.2 58 3.9 WSW 22 33 12 18 1013.8 1013.7 2.4
24/07:30pm 15.4 10.1 6.7 56 4.3 WSW 24 43 13 23 1013.2 1013.1 2.4
24/07:00pm 15.9 10.7 7.1 56 4.4 WSW 24 41 13 22 1012.5 1012.4 2.4
24/06:30pm 16.2 10.7 7.4 56 4.4 WSW 26 46 14 25 1012.0 1011.9 2.4
24/06:00pm 16.9 11.3 7.0 52 4.9 WSW 26 41 14 22 1011.6 1011.5 2.4
24/05:30pm 17.6 11.0 6.2 47 5.6 WSW 30 46 16 25 1011.4 1011.3 2.2
24/05:23pm 17.9 12.0 7.3 50 5.3 WSW 28 46 15 25 1011.3 1011.2 2.2
24/05:00pm 17.5 12.0 7.5 52 5.1 WSW 26 39 14 21 1011.2 1011.1 2.2
24/04:30pm 17.0 11.8 8.9 59 4.2 WSW 26 44 14 24 1011.2 1011.1 2.2
24/04:00pm 17.6 12.0 10.2 62 3.9 WSW 30 46 16 25 1011.0 1010.9 2.2
24/03:50pm 18.0 12.7 9.9 59 4.3 WSW 28 46 15 25 1010.9 1010.8 2.2
24/03:30pm 17.3 13.6 11.6 69 3.1 WSW 22 39 12 21 1011.0 1010.9 2.2
24/03:00pm 14.0 10.1 13.2 95 0.4 WSW 26 46 14 25 1011.1 1011.0 2.2
24/02:51pm 14.4 8.6 13.8 96 0.3 WSW 37 46 20 25 1010.9 1010.8 2.2
24/02:30pm 14.6 14.0 14.6 100 0.0 WSW 11 19 6 10 1010.9 1010.8 2.2
24/02:00pm 13.7 12.4 13.7 100 0.0 WSW 13 20 7 11 1011.0 1010.9 2.2
24/01:30pm 13.0 10.3 13.0 100 0.0 WSW 19 39 10 21 1011.0 1010.9 2.2
24/01:00pm 14.6 11.1 14.6 100 0.0 WSW 26 37 14 20 1010.6 1010.5 1.8
24/12:30pm 18.2 15.8 14.3 78 2.2 WSW 20 30 11 16 1009.9 1009.8 1.6
24/12:00pm 19.4 18.3 14.4 73 2.9 WSW 13 20 7 11 1009.7 1009.6 1.6
24/11:30am 19.2 18.8 15.3 78 2.3 SW 11 20 6 11 1009.8 1009.7 1.6
24/11:00am 17.8 18.3 16.5 92 0.8 WSW 9 15 5 8 1009.8 1009.7 1.6
24/10:30am 16.2 17.9 16.2 100 0.0 WSW 2 6 1 3 1009.6 1009.5 1.6
24/10:00am 15.7 15.9 15.7 100 0.0 SW 9 13 5 7 1009.6 1009.5 1.6
24/09:30am 15.2 15.7 15.0 99 0.1 WSW 6 9 3 5 1009.8 1009.7 1.6
24/09:00am 15.6 16.1 15.6 100 0.0 SW 7 9 4 5 1009.3 1009.2 0.2
24/08:30am 14.2 15.2 14.2 100 0.0 SSE 2 6 1 3 1009.0 1008.9 0.2
24/08:00am 13.3 13.2 13.3 100 0.0 SSW 6 9 3 5 1008.8 1008.7 0.2
24/07:30am 13.2 14.2 13.2 100 0.0 CALM 0 0 0 0 1009.9 1009.8 0.0
24/07:00am 13.0 13.9 13.0 100 0.0 CALM 0 0 0 0 1009.6 1009.5 0.0
24/06:30am 12.2 12.9 12.2 100 0.0 CALM 0 0 0 0 1008.8 1008.7 0.0
24/06:00am 11.9 11.4 11.9 100 0.0 SSW 6 9 3 5 1008.5 1008.4 0.0
24/05:30am 12.2 12.8 11.9 98 0.2 CALM 0 0 0 0 1008.6 1008.5 0.0
24/05:00am 12.5 12.0 12.2 98 0.2 W 6 9 3 5 1009.3 1009.2 0.0
24/04:30am 12.1 12.6 11.6 97 0.3 CALM 0 0 0 0 1008.1 1008.0 0.0
24/04:00am 12.6 13.3 12.1 97 0.3 CALM 0 0 0 0 1008.3 1008.2 0.0
24/03:30am 12.6 12.0 12.3 98 0.2 SSW 7 13 4 7 1009.3 1009.2 0.0
24/03:00am 13.1 12.6 12.6 97 0.3 SE 7 9 4 5 1009.4 1009.3 0.0
24/02:30am 13.0 13.3 12.1 94 0.5 ESE 2 7 1 4 1008.8 1008.7 0.0
24/02:00am 13.7 14.5 12.4 92 0.7 CALM 0 0 0 0 1009.6 1009.5 0.0
24/01:30am 14.1 14.9 12.5 90 0.9 CALM 0 2 0 1 1010.6 1010.5 0.0
24/01:00am 14.5 15.0 12.9 90 0.9 E 2 7 1 4 1011.1 1011.0 0.0
24/12:30am 14.3 14.4 12.7 90 0.9 ESE 4 7 2 4 1011.6 1011.5 0.0
24/12:00am 13.9 13.4 12.1 89 1.0 ESE 6 6 3 3 1011.9 1011.8 0.0
 
Date/Time
EDT
Temp
°C
App
Temp
°C
Dew
Point
Rel
Hum
%
Delta-T
°C
Wind Press
QNH
hPa
Press
MSL
hPa
Rain
since 9 am
mm
Dir
 
Spd
km/h
Gust
km/h
Spd
kts
Gust
kts
23/11:30pm 13.2 12.7 10.7 85 1.3 S 4 6 2 3 1012.8 1012.7 0.0
23/11:00pm 13.8 13.6 10.4 80 1.8 SE 2 4 1 2 1012.7 1012.6 0.0
23/10:30pm 15.0 14.4 11.6 80 1.8 ENE 6 9 3 5 1012.6 1012.5 0.0
23/10:00pm 14.8 14.0 11.0 78 2.0 S 6 7 3 4 1012.4 1012.3 0.0
23/09:30pm 16.0 15.9 10.7 71 2.8 SSW 2 7 1 4 1012.8 1012.7 0.0
23/09:00pm 16.3 15.3 11.0 71 2.8 SSE 7 9 4 5 1012.2 1012.1 0.0
23/08:30pm 16.6 15.6 11.1 70 3.0 S 7 9 4 5 1012.3 1012.2 0.0
23/08:00pm 17.0 15.5 10.6 66 3.4 SSW 9 13 5 7 1012.4 1012.3 0.0
23/07:30pm 17.9 16.8 10.8 63 3.8 S 7 11 4 6 1012.4 1012.3 0.0
23/07:00pm 18.3 16.0 10.4 60 4.2 SSW 13 19 7 10 1013.0 1012.9 0.0
23/06:30pm 18.9 15.9 9.4 54 5.0 S 15 24 8 13 1011.1 1011.0 0.0
23/06:00pm 20.2 17.2 10.6 54 5.2 SSW 17 24 9 13 1011.4 1011.3 0.0
23/05:30pm 21.9 19.3 11.9 53 5.6 SSW 17 22 9 12 1011.5 1011.4 0.0
23/05:00pm 22.6 20.2 12.5 53 5.8 S 17 19 9 10 1012.0 1011.9 0.0
23/04:30pm 23.0 19.8 12.0 50 6.2 SSW 20 28 11 15 1012.0 1011.9 0.0
23/04:00pm 23.9 20.9 12.5 49 6.5 SSW 20 32 11 17 1011.6 1011.5 0.0
23/03:30pm 25.0 23.2 12.2 44 7.3 WSW 13 24 7 13 1011.4 1011.3 0.0
23/03:00pm 25.6 22.9 10.2 38 8.6 NW 15 30 8 16 1011.7 1011.6 0.0
23/02:30pm 24.9 20.9 9.2 37 8.5 NW 20 30 11 16 1011.8 1011.7 0.0
23/02:00pm 24.2 23.1 10.1 41 7.8 WNW 6 19 3 10 1011.6 1011.5 0.0
23/01:30pm 23.7 20.9 10.0 42 7.5 WNW 15 28 8 15 1011.9 1011.8 0.0
23/01:00pm 22.1 18.4 9.3 44 6.9 NW 19 28 10 15 1012.2 1012.1 0.0
23/12:30pm 21.1 19.0 9.7 48 6.1 W 11 20 6 11 1012.0 1011.9 0.0
23/12:00pm 21.1 18.3 10.0 49 6.0 WNW 15 22 8 12 1012.5 1012.4 0.0
23/11:30am 20.7 18.7 10.2 51 5.7 N 11 17 6 9 1012.6 1012.5 0.0
23/11:00am 19.0 17.7 11.3 61 4.2 NNW 9 15 5 8 1012.7 1012.6 0.0
23/10:30am 17.8 19.4 17.8 100 0.0 N 6 15 3 8 1013.1 1013.0 0.0
23/10:00am 14.8 15.0 14.8 100 0.0 N 7 11 4 6 1013.5 1013.4 0.0
23/09:30am 13.3 13.6 13.3 100 0.0 N 4 9 2 5 1013.7 1013.6 0.0
23/09:00am 12.5 12.0 12.5 100 0.0 N 7 9 4 5 1013.6 1013.5 0.0
23/08:30am 11.9 11.4 11.9 100 0.0 N 6 9 3 5 1013.4 1013.3 0.0
23/08:00am 11.2 11.6 11.2 100 0.0 CALM 0 0 0 0 1012.9 1012.8 0.0

Other Formats:

Comma delimited format used in spreadsheet applications
http://www.bom.gov.au/fwo/IDV60801/IDV60801.95822.axf

JavaScript Object Notation format (JSON) in row-major order
http://www.bom.gov.au/fwo/IDV60801/IDV60801.95822.json